createdAt,value
2022-08-11T00:02:32.106Z,22.53
2022-08-11T00:05:06.170Z,22.58
2022-08-11T00:07:36.145Z,22.57
2022-08-11T00:10:04.700Z,22.52
2022-08-11T00:12:33.110Z,22.36
2022-08-11T00:15:02.249Z,22.07
2022-08-11T00:17:34.098Z,22.07
2022-08-11T00:20:15.369Z,22.19
2022-08-11T00:22:47.951Z,21.92
2022-08-11T00:25:18.453Z,21.99
2022-08-11T00:27:48.072Z,22.01
2022-08-11T00:30:17.315Z,22.18
2022-08-11T00:32:54.827Z,22.47
2022-08-11T00:35:51.762Z,22.53
2022-08-11T00:38:18.287Z,21.81
2022-08-11T00:40:53.121Z,21.74
2022-08-11T00:43:43.416Z,22.01
2022-08-11T00:46:19.256Z,22.10
2022-08-11T00:48:57.204Z,22.01
2022-08-11T00:52:02.295Z,22.08
2022-08-11T00:54:54.629Z,22.16
2022-08-11T00:58:07.219Z,22.08
2022-08-11T01:00:48.510Z,21.93
2022-08-11T01:03:26.435Z,21.62
2022-08-11T01:06:22.700Z,22.03
2022-08-11T01:09:24.303Z,22.23
2022-08-11T01:12:07.110Z,22.19
2022-08-11T01:15:09.677Z,21.64
2022-08-11T01:18:12.444Z,21.61
2022-08-11T01:21:19.887Z,22.07
2022-08-11T01:24:31.409Z,21.33
2022-08-11T01:27:39.622Z,21.46
2022-08-11T01:30:49.780Z,21.29
2022-08-11T01:33:52.818Z,21.73
2022-08-11T01:36:56.618Z,21.70
2022-08-11T01:39:55.516Z,21.55
2022-08-11T01:43:17.117Z,21.24
2022-08-11T01:45:51.755Z,21.62
2022-08-11T01:48:29.502Z,21.81
2022-08-11T01:51:17.283Z,21.93
2022-08-11T01:53:56.555Z,21.94
2022-08-11T01:56:35.476Z,21.62
2022-08-11T01:59:12.176Z,21.92
2022-08-11T02:01:51.942Z,21.48
2022-08-11T02:04:31.963Z,22.04
2022-08-11T02:07:08.838Z,21.26
2022-08-11T02:09:57.511Z,21.50
2022-08-11T02:12:52.504Z,21.50
2022-08-11T02:15:28.815Z,21.65
2022-08-11T02:18:07.399Z,21.71
2022-08-11T02:21:01.553Z,21.35
2022-08-11T02:24:06.642Z,21.35
2022-08-11T02:26:40.371Z,21.58
2022-08-11T02:29:15.423Z,21.63
2022-08-11T02:32:24.276Z,21.26
2022-08-11T02:35:01.335Z,21.17
2022-08-11T02:37:39.132Z,21.15
2022-08-11T02:40:18.178Z,21.06
2022-08-11T02:42:59.737Z,21.28
2022-08-11T02:45:42.202Z,21.13
2022-08-11T02:49:01.554Z,21.20
2022-08-11T02:51:39.046Z,21.26
2022-08-11T02:54:12.555Z,21.02
2022-08-11T02:56:52.744Z,21.06
2022-08-11T02:59:53.871Z,21.05
2022-08-11T03:02:31.673Z,21.09
2022-08-11T03:05:09.228Z,21.29
2022-08-11T03:08:08.825Z,21.36
2022-08-11T03:10:45.262Z,21.63
2022-08-11T03:13:38.463Z,21.81
2022-08-11T03:16:32.470Z,21.51
2022-08-11T03:19:08.907Z,21.34
2022-08-11T03:22:02.474Z,21.17
2022-08-11T03:24:38.592Z,21.04
2022-08-11T03:27:11.099Z,20.95
2022-08-11T03:29:44.675Z,20.88
2022-08-11T03:32:25.849Z,20.64
2022-08-11T03:34:55.183Z,20.69
2022-08-11T03:37:50.530Z,20.37
2022-08-11T03:40:52.629Z,20.39
2022-08-11T03:43:30.617Z,20.57
2022-08-11T03:46:05.402Z,20.60
2022-08-11T03:48:44.679Z,20.72
2022-08-11T03:51:21.285Z,20.64
2022-08-11T03:53:57.525Z,20.47
2022-08-11T03:57:16.214Z,20.45
2022-08-11T04:00:12.361Z,20.30
2022-08-11T04:02:57.167Z,20.03
2022-08-11T04:06:03.656Z,20.13
2022-08-11T04:08:56.946Z,20.29
2022-08-11T04:11:54.983Z,20.27
2022-08-11T04:15:01.484Z,19.78
2022-08-11T04:17:54.131Z,19.71
2022-08-11T04:20:50.590Z,20.14
2022-08-11T04:24:35.917Z,20.01
2022-08-11T04:27:07.369Z,19.92
2022-08-11T04:30:03.470Z,20.05
2022-08-11T04:32:46.154Z,19.81
2022-08-11T04:35:33.386Z,19.61
2022-08-11T04:38:26.046Z,19.75
2022-08-11T04:41:58.771Z,19.49
2022-08-11T04:45:12.151Z,19.88
2022-08-11T04:48:10.288Z,20.16
2022-08-11T04:51:23.267Z,19.86
2022-08-11T04:54:19.550Z,20.22
2022-08-11T04:57:07.346Z,20.06
2022-08-11T05:00:07.424Z,20.55
2022-08-11T05:03:09.230Z,19.84
2022-08-11T05:05:56.181Z,20.19
2022-08-11T05:08:48.312Z,19.98
2022-08-11T05:11:38.082Z,20.33
2022-08-11T05:14:45.647Z,20.72
2022-08-11T05:17:34.436Z,20.36
2022-08-11T05:20:20.397Z,20.50
2022-08-11T05:23:07.790Z,20.30
2022-08-11T05:26:44.012Z,20.73
2022-08-11T05:29:19.801Z,20.89
2022-08-11T05:32:14.846Z,20.89
2022-08-11T05:34:54.866Z,21.40
2022-08-11T05:37:27.829Z,21.56
2022-08-11T05:40:16.750Z,21.39
2022-08-11T05:43:07.877Z,21.77
2022-08-11T05:46:02.557Z,21.86
2022-08-11T05:48:52.566Z,21.60
2022-08-11T05:51:38.569Z,21.79
2022-08-11T05:54:29.509Z,21.85
2022-08-11T05:57:00.760Z,22.33
2022-08-11T05:59:29.454Z,22.38
2022-08-11T06:02:04.244Z,22.61
2022-08-11T06:04:33.184Z,22.91
2022-08-11T06:07:04.127Z,22.81
2022-08-11T06:09:35.147Z,22.92
2022-08-11T06:12:08.546Z,23.21
2022-08-11T06:14:43.625Z,23.31
2022-08-11T06:17:13.863Z,23.49
2022-08-11T06:19:43.751Z,23.57
2022-08-11T06:22:12.848Z,24.06
2022-08-11T06:24:45.600Z,24.05
2022-08-11T06:27:20.885Z,23.72
2022-08-11T06:29:54.717Z,24.14
2022-08-11T06:32:30.690Z,23.82
2022-08-11T06:35:13.562Z,23.98
2022-08-11T06:37:48.638Z,24.07
2022-08-11T06:40:28.588Z,24.32
2022-08-11T06:43:02.342Z,24.62
2022-08-11T06:45:40.164Z,24.76
2022-08-11T06:48:17.518Z,24.86
2022-08-11T06:51:09.600Z,24.51
2022-08-11T06:53:41.096Z,24.76
2022-08-11T06:56:27.742Z,25.08
2022-08-11T06:59:13.728Z,25.30
2022-08-11T07:01:49.692Z,25.48
2022-08-11T07:04:29.826Z,25.46
2022-08-11T07:07:25.544Z,25.38
2022-08-11T07:10:35.917Z,25.55
2022-08-11T07:13:44.654Z,26.02
2022-08-11T07:16:13.904Z,25.96
2022-08-11T07:19:01.470Z,26.25
2022-08-11T07:22:02.565Z,26.34
2022-08-11T07:24:59.549Z,26.38
2022-08-11T07:27:51.723Z,26.50
2022-08-11T07:30:20.003Z,26.78
2022-08-11T07:32:51.726Z,26.70
2022-08-11T07:35:23.891Z,26.90
2022-08-11T07:38:01.760Z,26.61
2022-08-11T07:40:31.599Z,26.84
2022-08-11T07:43:01.141Z,26.66
2022-08-11T07:45:46.996Z,26.67
2022-08-11T07:48:33.881Z,26.80
2022-08-11T07:51:19.983Z,26.60
2022-08-11T07:53:58.606Z,26.98
2022-08-11T07:56:39.492Z,26.91
2022-08-11T07:59:58.536Z,26.68
2022-08-11T08:02:58.174Z,26.85
2022-08-11T08:05:44.016Z,26.61
2022-08-11T08:08:29.818Z,26.95
2022-08-11T08:11:16.831Z,27.15
2022-08-11T08:14:02.882Z,26.90
2022-08-11T08:16:49.704Z,27.36
2022-08-11T08:19:20.745Z,26.97
2022-08-11T08:21:49.293Z,27.19
2022-08-11T08:24:20.224Z,27.27
2022-08-11T08:27:03.247Z,27.42
2022-08-11T08:29:51.860Z,28.09
2022-08-11T08:32:21.869Z,28.04
2022-08-11T08:34:54.255Z,27.80
2022-08-11T08:37:46.710Z,27.72
2022-08-11T08:40:14.879Z,27.69
2022-08-11T08:42:51.505Z,27.36
2022-08-11T08:45:19.883Z,27.64
2022-08-11T08:47:53.784Z,27.68
2022-08-11T08:50:27.765Z,27.73
2022-08-11T08:52:59.713Z,27.74
2022-08-11T08:55:28.937Z,27.94
2022-08-11T08:58:00.718Z,27.93
2022-08-11T09:00:40.140Z,28.29
2022-08-11T09:03:38.247Z,28.86
2022-08-11T09:05:57.199Z,28.97
2022-08-11T09:08:25.598Z,28.60
2022-08-11T09:11:13.302Z,29.15
2022-08-11T09:13:44.750Z,29.20
2022-08-11T09:16:13.441Z,29.49
2022-08-11T09:18:44.644Z,29.81
2022-08-11T09:21:14.862Z,30.02
2022-08-11T09:24:26.086Z,30.43
2022-08-11T09:27:01.173Z,30.71
2022-08-11T09:29:32.284Z,30.34
2022-08-11T09:32:00.993Z,30.50
2022-08-11T09:34:29.787Z,30.32
2022-08-11T09:37:19.576Z,30.26
2022-08-11T09:40:27.247Z,30.41
2022-08-11T09:43:13.451Z,30.58
2022-08-11T09:45:46.290Z,30.09
2022-08-11T09:48:14.759Z,31.20
2022-08-11T09:50:43.138Z,31.57
2022-08-11T09:53:36.456Z,31.67
2022-08-11T09:56:20.889Z,31.86
2022-08-11T09:58:48.309Z,31.43
2022-08-11T10:01:27.656Z,31.95
2022-08-11T10:04:01.417Z,32.18
2022-08-11T10:06:47.902Z,32.21
2022-08-11T10:09:25.298Z,31.45
2022-08-11T10:11:58.576Z,31.68
2022-08-11T10:14:46.547Z,31.65
2022-08-11T10:17:17.480Z,31.30
2022-08-11T10:20:05.207Z,31.88
2022-08-11T10:22:55.167Z,32.10
2022-08-11T10:25:41.154Z,32.36
2022-08-11T10:28:30.371Z,32.78
2022-08-11T10:31:16.820Z,31.98
2022-08-11T10:34:03.903Z,31.98
2022-08-11T10:36:33.813Z,32.33
2022-08-11T10:39:06.283Z,32.40
2022-08-11T10:42:08.719Z,32.45
2022-08-11T10:44:40.145Z,31.77
2022-08-11T10:47:26.711Z,32.87
2022-08-11T10:50:11.359Z,33.58
2022-08-11T10:52:58.305Z,34.51
2022-08-11T10:55:44.731Z,34.54
2022-08-11T10:58:30.692Z,34.56
2022-08-11T11:00:59.423Z,34.26
2022-08-11T11:03:29.845Z,33.02
2022-08-11T11:06:27.760Z,32.62
2022-08-11T11:09:04.030Z,32.22
2022-08-11T11:11:55.049Z,33.34
2022-08-11T11:14:46.399Z,33.41
2022-08-11T11:17:44.049Z,33.30
2022-08-11T11:20:36.078Z,33.30
2022-08-11T11:23:09.407Z,33.52
2022-08-11T11:26:06.763Z,33.42
2022-08-11T11:29:00.560Z,32.13
2022-08-11T11:31:40.618Z,31.65
2022-08-11T11:34:20.118Z,32.10
2022-08-11T11:36:50.672Z,31.81
2022-08-11T11:39:23.958Z,31.46
2022-08-11T11:41:54.681Z,32.05
2022-08-11T11:44:23.796Z,31.62
2022-08-11T11:46:52.311Z,31.94
2022-08-11T11:51:59.490Z,31.15
2022-08-11T11:54:31.494Z,31.47
2022-08-11T11:57:20.744Z,31.96
2022-08-11T12:00:07.199Z,31.26
2022-08-11T12:02:39.101Z,31.36
2022-08-11T12:05:09.017Z,31.71
2022-08-11T12:07:56.897Z,32.13
2022-08-11T12:10:45.633Z,32.47
2022-08-11T12:13:32.147Z,33.31
2022-08-11T12:16:33.683Z,33.64
2022-08-11T12:18:54.473Z,34.73
2022-08-11T12:21:23.091Z,35.83
2022-08-11T12:24:09.253Z,36.24
2022-08-11T12:27:14.989Z,36.19
2022-08-11T12:29:45.360Z,36.95
2022-08-11T12:32:13.594Z,37.36
2022-08-11T12:34:42.010Z,36.79
2022-08-11T12:37:13.782Z,36.87
2022-08-11T12:40:17.187Z,36.23
2022-08-11T12:43:21.717Z,36.69
2022-08-11T12:45:52.672Z,36.64
2022-08-11T12:49:00.784Z,36.85
2022-08-11T12:52:11.287Z,35.67
2022-08-11T12:54:46.259Z,35.41
2022-08-11T12:57:37.438Z,36.37
2022-08-11T13:00:27.207Z,37.13
2022-08-11T13:03:13.668Z,37.41
2022-08-11T13:05:45.080Z,37.95
2022-08-11T13:08:15.270Z,38.45
2022-08-11T13:11:02.003Z,37.95
2022-08-11T13:13:55.741Z,37.75
2022-08-11T13:16:20.768Z,37.78
2022-08-11T13:18:50.247Z,38.76
2022-08-11T13:21:20.060Z,38.67
2022-08-11T13:24:00.758Z,39.38
2022-08-11T13:26:46.941Z,39.52
2022-08-11T13:29:19.930Z,38.20
2022-08-11T13:31:49.697Z,38.75
2022-08-11T13:34:18.491Z,38.32
2022-08-11T13:36:50.110Z,38.25
2022-08-11T13:39:19.030Z,37.80
2022-08-11T13:41:48.602Z,37.23
2022-08-11T13:44:24.708Z,37.37
2022-08-11T13:46:56.399Z,37.13
2022-08-11T13:49:25.235Z,36.58
2022-08-11T13:51:53.999Z,35.87
2022-08-11T13:54:24.847Z,35.24
2022-08-11T13:56:56.162Z,35.19
2022-08-11T13:59:29.904Z,35.30
2022-08-11T14:02:28.497Z,34.69
2022-08-11T14:04:55.603Z,34.36
2022-08-11T14:07:26.102Z,33.04
2022-08-11T14:09:57.894Z,33.74
2022-08-11T14:12:45.312Z,33.97
2022-08-11T14:15:20.216Z,33.71
2022-08-11T14:17:54.263Z,33.64
2022-08-11T14:20:40.126Z,33.37
2022-08-11T14:23:11.096Z,32.74
2022-08-11T14:26:02.438Z,33.89
2022-08-11T14:28:39.902Z,34.63
2022-08-11T14:31:10.334Z,35.00
2022-08-11T14:33:59.859Z,36.11
2022-08-11T14:36:31.867Z,36.48
2022-08-11T14:39:00.217Z,37.53
2022-08-11T14:42:10.302Z,37.55
2022-08-11T14:45:02.137Z,37.67
2022-08-11T14:47:33.152Z,37.43
2022-08-11T14:50:10.917Z,37.69
2022-08-11T14:52:51.125Z,37.90
2022-08-11T14:55:39.673Z,38.02
2022-08-11T14:58:10.151Z,38.56
2022-08-11T15:00:39.096Z,38.06
2022-08-11T15:03:13.555Z,37.13
2022-08-11T15:05:57.591Z,37.94
2022-08-11T15:08:42.844Z,38.54
2022-08-11T15:11:32.416Z,37.92
2022-08-11T15:14:02.617Z,36.34
2022-08-11T15:16:53.919Z,36.24
2022-08-11T15:19:22.646Z,36.12
2022-08-11T15:22:09.871Z,35.47
2022-08-11T15:24:38.510Z,34.73
2022-08-11T15:27:28.504Z,34.80
2022-08-11T15:30:18.253Z,34.46
2022-08-11T15:33:20.871Z,34.19
2022-08-11T15:36:06.453Z,34.12
2022-08-11T15:38:37.418Z,33.34
2022-08-11T15:41:24.373Z,33.30
2022-08-11T15:44:44.453Z,33.20
2022-08-11T15:47:14.432Z,33.10
2022-08-11T15:50:11.734Z,32.82
2022-08-11T15:52:37.945Z,32.10
2022-08-11T15:55:09.633Z,31.58
2022-08-11T15:57:55.485Z,31.44
2022-08-11T16:00:41.852Z,31.74
2022-08-11T16:04:06.519Z,32.39
2022-08-11T16:06:17.272Z,32.83
2022-08-11T16:08:46.199Z,32.46
2022-08-11T16:11:16.551Z,32.27
2022-08-11T16:14:02.295Z,33.03
2022-08-11T16:16:34.599Z,32.94
2022-08-11T16:19:05.378Z,33.08
2022-08-11T16:21:36.306Z,32.77
2022-08-11T16:24:08.113Z,32.53
2022-08-11T16:27:11.066Z,32.35
2022-08-11T16:29:32.914Z,32.61
2022-08-11T16:32:18.388Z,32.24
2022-08-11T16:35:06.589Z,31.99
2022-08-11T16:37:55.767Z,31.87
2022-08-11T16:40:24.648Z,32.00
2022-08-11T16:43:12.740Z,31.89
2022-08-11T16:45:59.935Z,32.01
2022-08-11T16:48:37.325Z,31.67
2022-08-11T16:51:07.293Z,31.68
2022-08-11T16:53:59.854Z,31.07
2022-08-11T16:56:26.772Z,30.79
2022-08-11T16:59:16.657Z,30.86
2022-08-11T17:01:49.578Z,30.61
2022-08-11T17:04:40.313Z,30.47
2022-08-11T17:07:40.471Z,30.45
2022-08-11T17:10:55.655Z,30.36
2022-08-11T17:13:32.248Z,30.07
2022-08-11T17:16:12.390Z,30.05
2022-08-11T17:18:47.498Z,30.07
2022-08-11T17:21:20.117Z,30.12
2022-08-11T17:23:51.076Z,30.12
2022-08-11T17:26:27.005Z,30.03
2022-08-11T17:28:58.415Z,29.88
2022-08-11T17:31:46.369Z,29.75
2022-08-11T17:34:32.866Z,29.80
2022-08-11T17:37:02.527Z,29.85
2022-08-11T17:39:34.804Z,29.88
2022-08-11T17:42:20.430Z,29.70
2022-08-11T17:45:07.027Z,29.58
2022-08-11T17:47:53.999Z,29.50
2022-08-11T17:50:22.580Z,29.43
2022-08-11T17:53:08.862Z,29.49
2022-08-11T17:55:56.035Z,29.38
2022-08-11T17:58:44.280Z,29.36
2022-08-11T18:01:13.238Z,29.21
2022-08-11T18:03:56.424Z,29.29
2022-08-11T18:06:33.824Z,29.30
2022-08-11T18:09:22.905Z,29.37
2022-08-11T18:12:12.230Z,29.25
2022-08-11T18:14:59.550Z,29.34
2022-08-11T18:17:45.108Z,29.33
2022-08-11T18:20:32.402Z,29.02
2022-08-11T18:23:18.468Z,28.94
2022-08-11T18:26:06.475Z,28.78
2022-08-11T18:28:58.184Z,28.90
2022-08-11T18:31:44.702Z,28.71
2022-08-11T18:34:33.007Z,28.80
2022-08-11T18:37:25.970Z,28.93
2022-08-11T18:40:17.073Z,28.70
2022-08-11T18:43:03.984Z,28.62
2022-08-11T18:45:51.288Z,28.60
2022-08-11T18:48:54.647Z,28.41
2022-08-11T18:51:42.114Z,28.36
2022-08-11T18:54:30.417Z,28.31
2022-08-11T18:57:19.823Z,28.34
2022-08-11T19:00:06.671Z,28.21
2022-08-11T19:02:54.685Z,28.20
2022-08-11T19:06:35.688Z,28.15
2022-08-11T19:08:49.334Z,28.15
2022-08-11T19:11:42.472Z,28.17
2022-08-11T19:14:30.977Z,28.27
2022-08-11T19:17:44.786Z,28.21
2022-08-11T19:20:27.378Z,28.23
2022-08-11T19:23:14.407Z,28.24
2022-08-11T19:26:02.423Z,28.12
2022-08-11T19:28:50.441Z,28.13
2022-08-11T19:31:42.283Z,28.16
2022-08-11T19:34:36.234Z,28.17
2022-08-11T19:37:25.000Z,28.05
2022-08-11T19:40:11.960Z,27.96
2022-08-11T19:42:59.271Z,28.11
2022-08-11T19:45:51.206Z,28.07
2022-08-11T19:48:40.669Z,27.85
2022-08-11T19:51:28.171Z,27.69
2022-08-11T19:54:14.299Z,27.99
2022-08-11T19:57:01.949Z,28.06
2022-08-11T19:59:48.578Z,28.10
2022-08-11T20:02:35.990Z,28.05
2022-08-11T20:05:22.559Z,28.14
2022-08-11T20:08:08.549Z,28.02
2022-08-11T20:10:55.616Z,27.93
2022-08-11T20:13:43.503Z,27.99
2022-08-11T20:16:31.418Z,27.84
2022-08-11T20:19:26.320Z,27.80
2022-08-11T20:22:26.447Z,27.93
2022-08-11T20:25:13.597Z,28.01
2022-08-11T20:28:01.020Z,27.97
2022-08-11T20:30:47.990Z,27.54
2022-08-11T20:33:38.194Z,27.72
2022-08-11T20:36:26.486Z,27.71
2022-08-11T20:39:13.051Z,27.54
2022-08-11T20:41:59.708Z,27.59
2022-08-11T20:44:46.443Z,27.58
2022-08-11T20:47:33.490Z,27.27
2022-08-11T20:50:39.655Z,27.41
2022-08-11T20:53:27.314Z,27.18
2022-08-11T20:56:14.577Z,27.22
2022-08-11T20:59:14.273Z,27.23
2022-08-11T21:02:09.415Z,27.12
2022-08-11T21:04:55.536Z,26.95
2022-08-11T21:07:42.450Z,27.19
2022-08-11T21:10:30.075Z,27.40
2022-08-11T21:13:26.790Z,27.25
2022-08-11T21:16:26.354Z,27.19
2022-08-11T21:19:16.626Z,27.06
2022-08-11T21:22:03.831Z,26.97
2022-08-11T21:24:52.427Z,26.83
2022-08-11T21:27:40.371Z,27.10
2022-08-11T21:30:27.237Z,27.01
2022-08-11T21:36:29.166Z,26.86
2022-08-11T21:39:17.447Z,26.76
2022-08-11T21:42:05.349Z,26.91
2022-08-11T21:44:53.798Z,26.89
2022-08-11T21:47:42.961Z,26.98
2022-08-11T21:50:30.227Z,27.05
2022-08-11T21:53:16.799Z,27.11
2022-08-11T21:56:02.714Z,26.94
2022-08-11T21:58:49.313Z,26.51
2022-08-11T22:01:37.289Z,26.64
2022-08-11T22:04:24.006Z,26.92
2022-08-11T22:07:10.542Z,27.04
2022-08-11T22:09:57.148Z,26.60
2022-08-11T22:12:45.197Z,26.83
2022-08-11T22:15:31.237Z,26.66
2022-08-11T22:18:19.709Z,26.73
2022-08-11T22:21:05.798Z,26.67
2022-08-11T22:23:52.961Z,26.78
2022-08-11T22:26:41.287Z,26.67
2022-08-11T22:29:49.966Z,26.74
2022-08-11T22:32:34.426Z,26.67
2022-08-11T22:35:22.830Z,26.78
2022-08-11T22:38:08.688Z,26.98
2022-08-11T22:40:55.762Z,26.70
2022-08-11T22:43:41.708Z,26.32
2022-08-11T22:46:27.842Z,26.37
2022-08-11T22:49:14.410Z,26.42
2022-08-11T22:52:03.505Z,26.37
2022-08-11T22:54:50.921Z,26.43
2022-08-11T22:57:36.942Z,26.37
2022-08-11T23:00:25.061Z,26.27
2022-08-11T23:03:21.097Z,26.42
2022-08-11T23:06:23.610Z,26.18
2022-08-11T23:09:11.762Z,26.31
2022-08-11T23:12:05.932Z,26.27
2022-08-11T23:15:04.657Z,26.16
2022-08-11T23:17:51.954Z,26.13
2022-08-11T23:20:42.476Z,26.14
2022-08-11T23:23:30.439Z,25.85
2022-08-11T23:26:34.884Z,25.97
2022-08-11T23:29:22.582Z,26.10
2022-08-11T23:32:09.155Z,25.92
2022-08-11T23:35:03.860Z,26.04
2022-08-11T23:37:52.134Z,26.16
2022-08-11T23:40:40.379Z,26.10
2022-08-11T23:43:47.500Z,25.90
2022-08-11T23:46:33.303Z,25.93
2022-08-11T23:49:21.824Z,25.80
2022-08-11T23:52:08.406Z,25.90
2022-08-11T23:54:54.826Z,25.85
2022-08-11T23:57:47.782Z,25.67
